sensor_id;sensor_type;location;lat;lon;timestamp;pressure;altitude;pressure_sealevel;temperature;humidity
21547;BME280;41275;51.912;4.388;2023-07-28T00:04:21;100471.25;;;25.05;56.92
21547;BME280;41275;51.912;4.388;2023-07-28T00:09:42;100472.50;;;25.07;57.01
21547;BME280;41275;51.912;4.388;2023-07-28T00:15:04;100469.78;;;25.07;57.07
21547;BME280;41275;51.912;4.388;2023-07-28T00:20:25;100478.41;;;25.09;56.88
21547;BME280;41275;51.912;4.388;2023-07-28T00:25:47;100474.28;;;25.03;56.79
21547;BME280;41275;51.912;4.388;2023-07-28T00:31:08;100472.06;;;25.05;57.05
21547;BME280;41275;51.912;4.388;2023-07-28T00:36:30;100473.19;;;25.04;57.06
21547;BME280;41275;51.912;4.388;2023-07-28T00:41:52;100469.56;;;25.00;57.19
21547;BME280;41275;51.912;4.388;2023-07-28T00:47:13;100474.28;;;25.03;57.05
21547;BME280;41275;51.912;4.388;2023-07-28T00:52:34;100461.56;;;25.04;57.01
21547;BME280;41275;51.912;4.388;2023-07-28T00:57:56;100474.75;;;25.05;57.10
21547;BME280;41275;51.912;4.388;2023-07-28T01:03:18;100466.44;;;25.10;57.08
21547;BME280;41275;51.912;4.388;2023-07-28T01:09:03;100471.00;;;25.18;57.07
21547;BME280;41275;51.912;4.388;2023-07-28T01:14:25;100464.13;;;25.21;57.00
21547;BME280;41275;51.912;4.388;2023-07-28T01:19:46;100461.56;;;25.25;56.76
21547;BME280;41275;51.912;4.388;2023-07-28T01:25:22;100470.47;;;25.25;57.12
21547;BME280;41275;51.912;4.388;2023-07-28T01:30:49;100463.25;;;25.29;57.00
21547;BME280;41275;51.912;4.388;2023-07-28T01:36:10;100464.16;;;25.33;57.02
21547;BME280;41275;51.912;4.388;2023-07-28T01:41:31;100470.38;;;25.34;56.77
21547;BME280;41275;51.912;4.388;2023-07-28T01:46:52;100474.09;;;25.29;56.87
21547;BME280;41275;51.912;4.388;2023-07-28T01:52:14;100486.28;;;25.23;57.15
21547;BME280;41275;51.912;4.388;2023-07-28T01:57:39;100478.72;;;25.29;57.01
21547;BME280;41275;51.912;4.388;2023-07-28T02:03:00;100464.38;;;25.28;56.92
21547;BME280;41275;51.912;4.388;2023-07-28T02:08:23;100475.22;;;25.28;56.96
21547;BME280;41275;51.912;4.388;2023-07-28T02:13:45;100473.75;;;25.31;56.95
21547;BME280;41275;51.912;4.388;2023-07-28T02:19:06;100462.69;;;25.24;56.96
21547;BME280;41275;51.912;4.388;2023-07-28T02:24:28;100460.28;;;25.22;57.10
21547;BME280;41275;51.912;4.388;2023-07-28T02:29:50;100470.81;;;25.24;57.03
21547;BME280;41275;51.912;4.388;2023-07-28T02:35:11;100474.03;;;25.17;57.16
21547;BME280;41275;51.912;4.388;2023-07-28T02:40:32;100470.13;;;25.27;57.27
21547;BME280;41275;51.912;4.388;2023-07-28T02:45:55;100479.16;;;25.31;57.07
21547;BME280;41275;51.912;4.388;2023-07-28T02:51:17;100470.94;;;25.27;57.08
21547;BME280;41275;51.912;4.388;2023-07-28T02:56:38;100485.25;;;25.28;57.12
21547;BME280;41275;51.912;4.388;2023-07-28T03:01:59;100488.19;;;25.35;56.82
21547;BME280;41275;51.912;4.388;2023-07-28T03:07:20;100501.28;;;25.33;56.97
21547;BME280;41275;51.912;4.388;2023-07-28T03:12:42;100495.34;;;25.39;56.91
21547;BME280;41275;51.912;4.388;2023-07-28T03:18:03;100502.69;;;25.39;56.76
21547;BME280;41275;51.912;4.388;2023-07-28T03:23:24;100506.97;;;25.40;56.86
21547;BME280;41275;51.912;4.388;2023-07-28T03:28:46;100498.97;;;25.43;57.05
21547;BME280;41275;51.912;4.388;2023-07-28T03:34:07;100496.91;;;25.40;56.99
21547;BME280;41275;51.912;4.388;2023-07-28T03:39:28;100504.25;;;25.40;56.92
21547;BME280;41275;51.912;4.388;2023-07-28T03:44:50;100502.91;;;25.46;56.84
21547;BME280;41275;51.912;4.388;2023-07-28T03:50:12;100510.47;;;25.40;56.96
21547;BME280;41275;51.912;4.388;2023-07-28T03:55:34;100517.94;;;25.43;56.91
21547;BME280;41275;51.912;4.388;2023-07-28T04:00:55;100527.53;;;25.53;56.75
21547;BME280;41275;51.912;4.388;2023-07-28T04:06:17;100519.16;;;25.46;56.88
21547;BME280;41275;51.912;4.388;2023-07-28T04:11:38;100520.97;;;25.42;56.69
21547;BME280;41275;51.912;4.388;2023-07-28T04:16:59;100518.59;;;25.40;56.98
21547;BME280;41275;51.912;4.388;2023-07-28T04:22:20;100525.38;;;25.46;56.96
21547;BME280;41275;51.912;4.388;2023-07-28T04:27:42;100532.31;;;25.56;56.90
21547;BME280;41275;51.912;4.388;2023-07-28T04:33:03;100529.59;;;25.56;56.70
21547;BME280;41275;51.912;4.388;2023-07-28T04:38:24;100526.75;;;25.53;56.88
21547;BME280;41275;51.912;4.388;2023-07-28T04:43:46;100539.28;;;25.57;56.78
21547;BME280;41275;51.912;4.388;2023-07-28T04:49:07;100533.88;;;25.57;56.83
21547;BME280;41275;51.912;4.388;2023-07-28T04:54:28;100543.72;;;25.62;56.57
21547;BME280;41275;51.912;4.388;2023-07-28T04:59:49;100533.13;;;25.69;56.59
21547;BME280;41275;51.912;4.388;2023-07-28T05:05:10;100534.25;;;25.68;56.78
21547;BME280;41275;51.912;4.388;2023-07-28T05:10:32;100531.66;;;25.71;56.37
21547;BME280;41275;51.912;4.388;2023-07-28T05:15:53;100534.00;;;25.61;56.65
21547;BME280;41275;51.912;4.388;2023-07-28T05:21:14;100540.34;;;25.65;56.49
21547;BME280;41275;51.912;4.388;2023-07-28T05:26:35;100540.81;;;25.67;56.40
21547;BME280;41275;51.912;4.388;2023-07-28T05:31:58;100552.56;;;25.71;56.25
21547;BME280;41275;51.912;4.388;2023-07-28T05:37:20;100557.91;;;25.80;56.01
21547;BME280;41275;51.912;4.388;2023-07-28T05:42:41;100557.75;;;25.76;56.13
21547;BME280;41275;51.912;4.388;2023-07-28T05:48:03;100562.72;;;25.74;56.06
21547;BME280;41275;51.912;4.388;2023-07-28T05:53:24;100567.13;;;25.66;56.13
21547;BME280;41275;51.912;4.388;2023-07-28T05:58:48;100573.06;;;25.60;55.87
21547;BME280;41275;51.912;4.388;2023-07-28T06:04:10;100579.78;;;25.75;55.80
21547;BME280;41275;51.912;4.388;2023-07-28T06:09:32;100579.84;;;25.66;55.61
21547;BME280;41275;51.912;4.388;2023-07-28T06:14:53;100578.81;;;25.79;55.74
21547;BME280;41275;51.912;4.388;2023-07-28T06:20:14;100588.50;;;25.80;55.10
21547;BME280;41275;51.912;4.388;2023-07-28T06:25:35;100600.63;;;25.83;55.08
21547;BME280;41275;51.912;4.388;2023-07-28T06:30:59;100599.00;;;25.82;55.26
21547;BME280;41275;51.912;4.388;2023-07-28T06:36:20;100608.06;;;25.86;55.07
21547;BME280;41275;51.912;4.388;2023-07-28T06:41:41;100614.75;;;25.88;55.14
21547;BME280;41275;51.912;4.388;2023-07-28T06:47:02;100616.38;;;26.02;54.96
21547;BME280;41275;51.912;4.388;2023-07-28T06:52:24;100616.16;;;26.19;54.58
21547;BME280;41275;51.912;4.388;2023-07-28T06:57:45;100617.50;;;26.13;54.45
21547;BME280;41275;51.912;4.388;2023-07-28T07:03:06;100619.66;;;26.19;54.14
21547;BME280;41275;51.912;4.388;2023-07-28T07:08:28;100629.50;;;26.12;53.99
21547;BME280;41275;51.912;4.388;2023-07-28T07:13:49;100632.59;;;26.35;53.59
21547;BME280;41275;51.912;4.388;2023-07-28T07:19:10;100644.31;;;26.27;53.28
21547;BME280;41275;51.912;4.388;2023-07-28T07:24:32;100645.00;;;26.36;53.77
21547;BME280;41275;51.912;4.388;2023-07-28T07:29:53;100645.06;;;26.48;53.57
21547;BME280;41275;51.912;4.388;2023-07-28T07:35:15;100652.88;;;26.62;53.44
21547;BME280;41275;51.912;4.388;2023-07-28T07:40:36;100658.06;;;26.79;53.21
21547;BME280;41275;51.912;4.388;2023-07-28T07:45:58;100656.03;;;27.13;52.72
21547;BME280;41275;51.912;4.388;2023-07-28T07:51:19;100662.47;;;27.33;51.88
21547;BME280;41275;51.912;4.388;2023-07-28T07:56:40;100668.50;;;27.54;51.71
21547;BME280;41275;51.912;4.388;2023-07-28T08:02:02;100675.75;;;27.50;51.43
21547;BME280;41275;51.912;4.388;2023-07-28T08:07:23;100679.69;;;27.25;51.43
21547;BME280;41275;51.912;4.388;2023-07-28T08:12:45;100680.03;;;27.11;51.64
21547;BME280;41275;51.912;4.388;2023-07-28T08:18:08;100680.22;;;27.30;51.84
21547;BME280;41275;51.912;4.388;2023-07-28T08:23:29;100685.09;;;27.37;51.70
21547;BME280;41275;51.912;4.388;2023-07-28T08:28:50;100681.91;;;27.35;51.12
21547;BME280;41275;51.912;4.388;2023-07-28T08:34:11;100686.50;;;27.59;51.28
21547;BME280;41275;51.912;4.388;2023-07-28T08:39:33;100689.59;;;27.45;50.67
21547;BME280;41275;51.912;4.388;2023-07-28T08:44:54;100698.59;;;27.61;50.54
21547;BME280;41275;51.912;4.388;2023-07-28T08:50:15;100695.84;;;28.14;49.96
21547;BME280;41275;51.912;4.388;2023-07-28T08:55:37;100688.34;;;28.11;49.63
21547;BME280;41275;51.912;4.388;2023-07-28T09:00:59;100695.88;;;28.02;49.26
21547;BME280;41275;51.912;4.388;2023-07-28T09:06:29;100692.50;;;28.21;49.50
21547;BME280;41275;51.912;4.388;2023-07-28T09:11:54;100692.88;;;28.35;48.48
21547;BME280;41275;51.912;4.388;2023-07-28T09:17:15;100704.00;;;28.14;48.63
21547;BME280;41275;51.912;4.388;2023-07-28T09:22:38;100702.00;;;28.27;48.92
21547;BME280;41275;51.912;4.388;2023-07-28T09:28:00;100699.41;;;28.02;48.88
21547;BME280;41275;51.912;4.388;2023-07-28T09:33:32;100709.97;;;28.35;49.14
21547;BME280;41275;51.912;4.388;2023-07-28T09:38:55;100710.63;;;28.45;48.41
21547;BME280;41275;51.912;4.388;2023-07-28T09:44:17;100713.13;;;28.50;47.57
21547;BME280;41275;51.912;4.388;2023-07-28T09:49:41;100713.44;;;28.48;48.08
21547;BME280;41275;51.912;4.388;2023-07-28T09:55:08;100716.63;;;28.50;47.46
21547;BME280;41275;51.912;4.388;2023-07-28T10:00:32;100720.03;;;28.63;47.45
21547;BME280;41275;51.912;4.388;2023-07-28T10:05:54;100716.63;;;28.98;47.00
21547;BME280;41275;51.912;4.388;2023-07-28T10:11:16;100724.94;;;29.21;46.58
21547;BME280;41275;51.912;4.388;2023-07-28T10:16:38;100733.78;;;28.98;46.21
21547;BME280;41275;51.912;4.388;2023-07-28T10:27:34;100730.84;;;28.91;46.49
21547;BME280;41275;51.912;4.388;2023-07-28T10:32:56;100737.28;;;28.99;46.56
21547;BME280;41275;51.912;4.388;2023-07-28T10:38:30;100733.94;;;29.05;46.67
21547;BME280;41275;51.912;4.388;2023-07-28T10:43:52;100737.72;;;28.85;46.24
21547;BME280;41275;51.912;4.388;2023-07-28T10:49:16;100738.03;;;28.68;46.48
21547;BME280;41275;51.912;4.388;2023-07-28T10:54:37;100744.53;;;28.63;46.70
21547;BME280;41275;51.912;4.388;2023-07-28T11:00:02;100752.03;;;28.66;46.47
21547;BME280;41275;51.912;4.388;2023-07-28T11:05:28;100753.00;;;28.90;46.34
21547;BME280;41275;51.912;4.388;2023-07-28T11:10:50;100759.41;;;29.13;45.73
21547;BME280;41275;51.912;4.388;2023-07-28T11:16:12;100756.41;;;28.86;45.96
21547;BME280;41275;51.912;4.388;2023-07-28T11:21:37;100755.56;;;28.98;46.46
21547;BME280;41275;51.912;4.388;2023-07-28T11:26:59;100759.16;;;29.02;46.13
21547;BME280;41275;51.912;4.388;2023-07-28T11:32:20;100752.94;;;29.02;46.53
21547;BME280;41275;51.912;4.388;2023-07-28T11:37:43;100754.06;;;28.85;46.37
21547;BME280;41275;51.912;4.388;2023-07-28T11:43:05;100753.19;;;29.13;46.00
21547;BME280;41275;51.912;4.388;2023-07-28T11:48:29;100754.44;;;29.34;45.04
21547;BME280;41275;51.912;4.388;2023-07-28T11:53:52;100756.53;;;29.06;45.29
21547;BME280;41275;51.912;4.388;2023-07-28T11:59:17;100764.41;;;29.27;45.21
21547;BME280;41275;51.912;4.388;2023-07-28T12:04:40;100759.84;;;29.66;45.32
21547;BME280;41275;51.912;4.388;2023-07-28T12:10:03;100753.59;;;30.66;43.49
21547;BME280;41275;51.912;4.388;2023-07-28T12:15:31;100767.03;;;30.32;43.35
21547;BME280;41275;51.912;4.388;2023-07-28T12:20:53;100771.06;;;30.00;43.56
21547;BME280;41275;51.912;4.388;2023-07-28T12:26:14;100772.34;;;30.06;43.53
21547;BME280;41275;51.912;4.388;2023-07-28T12:31:35;100772.16;;;29.95;43.31
21547;BME280;41275;51.912;4.388;2023-07-28T12:36:57;100773.44;;;30.21;42.88
21547;BME280;41275;51.912;4.388;2023-07-28T12:42:18;100773.78;;;30.39;42.63
21547;BME280;41275;51.912;4.388;2023-07-28T12:47:42;100779.78;;;30.48;42.88
21547;BME280;41275;51.912;4.388;2023-07-28T12:53:04;100780.53;;;30.25;42.84
21547;BME280;41275;51.912;4.388;2023-07-28T12:58:27;100787.97;;;29.70;43.57
21547;BME280;41275;51.912;4.388;2023-07-28T13:03:49;100786.69;;;29.48;43.79
21547;BME280;41275;51.912;4.388;2023-07-28T13:09:10;100784.38;;;29.66;43.88
21547;BME280;41275;51.912;4.388;2023-07-28T13:14:32;100780.16;;;29.18;44.10
21547;BME280;41275;51.912;4.388;2023-07-28T13:19:53;100783.13;;;28.97;44.53
21547;BME280;41275;51.912;4.388;2023-07-28T13:25:14;100797.81;;;29.08;45.18
21547;BME280;41275;51.912;4.388;2023-07-28T13:30:35;100786.88;;;28.76;45.72
21547;BME280;41275;51.912;4.388;2023-07-28T13:35:56;100781.09;;;28.62;45.88
21547;BME280;41275;51.912;4.388;2023-07-28T13:41:18;100784.69;;;28.66;45.55
21547;BME280;41275;51.912;4.388;2023-07-28T13:46:39;100789.13;;;28.43;46.22
21547;BME280;41275;51.912;4.388;2023-07-28T13:52:01;100785.13;;;28.68;46.52
21547;BME280;41275;51.912;4.388;2023-07-28T13:57:23;100789.66;;;28.48;45.97
21547;BME280;41275;51.912;4.388;2023-07-28T14:02:44;100798.66;;;28.08;46.48
21547;BME280;41275;51.912;4.388;2023-07-28T14:08:05;100794.72;;;27.94;47.00
21547;BME280;41275;51.912;4.388;2023-07-28T14:13:26;100802.22;;;28.25;46.63
21547;BME280;41275;51.912;4.388;2023-07-28T14:18:47;100800.44;;;28.17;46.88
21547;BME280;41275;51.912;4.388;2023-07-28T14:24:11;100803.19;;;27.39;48.67
21547;BME280;41275;51.912;4.388;2023-07-28T14:29:32;100810.19;;;27.53;48.04
21547;BME280;41275;51.912;4.388;2023-07-28T14:34:53;100804.03;;;27.07;49.61
21547;BME280;41275;51.912;4.388;2023-07-28T14:40:15;100801.63;;;28.03;49.11
21547;BME280;41275;51.912;4.388;2023-07-28T14:45:37;100795.31;;;28.71;48.18
21547;BME280;41275;51.912;4.388;2023-07-28T14:50:58;100792.63;;;29.03;47.19
21547;BME280;41275;51.912;4.388;2023-07-28T14:56:19;100801.69;;;29.23;46.73
21547;BME280;41275;51.912;4.388;2023-07-28T15:01:41;100787.81;;;29.28;46.22
21547;BME280;41275;51.912;4.388;2023-07-28T15:07:03;100779.44;;;29.21;46.06
21547;BME280;41275;51.912;4.388;2023-07-28T15:12:24;100776.09;;;28.80;46.33
21547;BME280;41275;51.912;4.388;2023-07-28T15:17:45;100774.66;;;28.54;46.26
21547;BME280;41275;51.912;4.388;2023-07-28T15:23:07;100770.09;;;28.58;46.36
21547;BME280;41275;51.912;4.388;2023-07-28T15:28:28;100772.66;;;28.83;45.91
21547;BME280;41275;51.912;4.388;2023-07-28T15:33:49;100762.75;;;28.91;45.73
21547;BME280;41275;51.912;4.388;2023-07-28T15:39:10;100768.97;;;28.91;45.66
21547;BME280;41275;51.912;4.388;2023-07-28T15:44:32;100768.66;;;29.08;45.47
21547;BME280;41275;51.912;4.388;2023-07-28T15:49:54;100769.44;;;29.25;45.12
21547;BME280;41275;51.912;4.388;2023-07-28T15:55:15;100757.97;;;29.35;44.38
21547;BME280;41275;51.912;4.388;2023-07-28T16:00:36;100759.63;;;29.75;43.26
21547;BME280;41275;51.912;4.388;2023-07-28T16:05:58;100749.94;;;29.77;43.13
21547;BME280;41275;51.912;4.388;2023-07-28T16:11:19;100748.94;;;29.66;43.28
21547;BME280;41275;51.912;4.388;2023-07-28T16:16:41;100750.47;;;29.48;43.28
21547;BME280;41275;51.912;4.388;2023-07-28T16:22:03;100750.53;;;29.67;42.86
21547;BME280;41275;51.912;4.388;2023-07-28T16:27:25;100748.16;;;29.85;42.21
21547;BME280;41275;51.912;4.388;2023-07-28T16:32:47;100739.63;;;29.67;42.19
21547;BME280;41275;51.912;4.388;2023-07-28T16:38:08;100736.91;;;29.16;42.69
21547;BME280;41275;51.912;4.388;2023-07-28T16:43:29;100738.03;;;29.66;42.63
21547;BME280;41275;51.912;4.388;2023-07-28T16:48:50;100738.66;;;30.60;40.75
21547;BME280;41275;51.912;4.388;2023-07-28T16:54:11;100729.41;;;31.41;40.54
21547;BME280;41275;51.912;4.388;2023-07-28T16:59:32;100724.59;;;31.94;39.14
21547;BME280;41275;51.912;4.388;2023-07-28T17:04:54;100728.34;;;31.49;39.59
21547;BME280;41275;51.912;4.388;2023-07-28T17:10:15;100716.09;;;31.13;39.96
21547;BME280;41275;51.912;4.388;2023-07-28T17:15:36;100717.03;;;31.50;39.47
21547;BME280;41275;51.912;4.388;2023-07-28T17:20:58;100714.88;;;31.97;38.51
21547;BME280;41275;51.912;4.388;2023-07-28T17:26:19;100711.41;;;31.40;39.08
21547;BME280;41275;51.912;4.388;2023-07-28T17:31:40;100722.22;;;30.79;40.08
21547;BME280;41275;51.912;4.388;2023-07-28T17:37:02;100720.94;;;30.27;40.60
21547;BME280;41275;51.912;4.388;2023-07-28T17:42:23;100720.72;;;31.65;39.22
21547;BME280;41275;51.912;4.388;2023-07-28T17:47:46;100724.59;;;30.81;39.52
21547;BME280;41275;51.912;4.388;2023-07-28T17:53:08;100730.81;;;30.36;40.86
21547;BME280;41275;51.912;4.388;2023-07-28T17:58:29;100736.16;;;30.09;40.89
21547;BME280;41275;51.912;4.388;2023-07-28T18:03:50;100730.16;;;29.10;42.03
21547;BME280;41275;51.912;4.388;2023-07-28T18:09:14;100735.78;;;28.70;42.84
21547;BME280;41275;51.912;4.388;2023-07-28T18:14:36;100736.38;;;28.95;43.15
21547;BME280;41275;51.912;4.388;2023-07-28T18:19:57;100736.91;;;29.00;42.85
21547;BME280;41275;51.912;4.388;2023-07-28T18:25:18;100738.22;;;28.75;42.87
21547;BME280;41275;51.912;4.388;2023-07-28T18:30:40;100743.66;;;28.43;43.59
21547;BME280;41275;51.912;4.388;2023-07-28T18:36:01;100743.94;;;27.98;43.84
21547;BME280;41275;51.912;4.388;2023-07-28T18:41:22;100745.38;;;27.79;44.17
21547;BME280;41275;51.912;4.388;2023-07-28T18:46:43;100750.63;;;27.60;43.95
21547;BME280;41275;51.912;4.388;2023-07-28T18:52:05;100762.28;;;27.60;43.82
21547;BME280;41275;51.912;4.388;2023-07-28T18:57:26;100762.72;;;27.50;43.90
21547;BME280;41275;51.912;4.388;2023-07-28T19:02:48;100763.88;;;27.37;44.10
21547;BME280;41275;51.912;4.388;2023-07-28T19:08:15;100776.59;;;27.21;44.67
21547;BME280;41275;51.912;4.388;2023-07-28T19:13:37;100767.28;;;27.22;44.96
21547;BME280;41275;51.912;4.388;2023-07-28T19:18:58;100763.28;;;27.07;45.00
21547;BME280;41275;51.912;4.388;2023-07-28T19:24:19;100769.88;;;26.93;45.66
21547;BME280;41275;51.912;4.388;2023-07-28T19:29:42;100761.72;;;26.93;45.21
21547;BME280;41275;51.912;4.388;2023-07-28T19:35:04;100760.44;;;26.79;45.47
21547;BME280;41275;51.912;4.388;2023-07-28T19:40:26;100765.97;;;26.70;45.37
21547;BME280;41275;51.912;4.388;2023-07-28T19:45:47;100744.72;;;26.72;45.82
21547;BME280;41275;51.912;4.388;2023-07-28T19:51:08;100774.00;;;26.66;45.86
21547;BME280;41275;51.912;4.388;2023-07-28T19:56:29;100780.09;;;26.63;45.75
21547;BME280;41275;51.912;4.388;2023-07-28T20:01:51;100774.66;;;26.63;46.12
21547;BME280;41275;51.912;4.388;2023-07-28T20:07:12;100773.50;;;26.52;46.38
21547;BME280;41275;51.912;4.388;2023-07-28T20:12:33;100776.34;;;26.56;46.87
21547;BME280;41275;51.912;4.388;2023-07-28T20:17:54;100775.00;;;26.50;47.01
21547;BME280;41275;51.912;4.388;2023-07-28T20:23:17;100781.56;;;26.40;47.05
21547;BME280;41275;51.912;4.388;2023-07-28T20:28:39;100778.94;;;26.31;47.44
21547;BME280;41275;51.912;4.388;2023-07-28T20:34:00;100768.28;;;26.14;47.75
21547;BME280;41275;51.912;4.388;2023-07-28T20:39:22;100773.09;;;26.08;47.83
21547;BME280;41275;51.912;4.388;2023-07-28T20:44:44;100771.91;;;26.18;47.92
21547;BME280;41275;51.912;4.388;2023-07-28T20:50:05;100767.53;;;26.26;47.49
21547;BME280;41275;51.912;4.388;2023-07-28T20:55:27;100753.84;;;26.22;47.20
21547;BME280;41275;51.912;4.388;2023-07-28T21:00:49;100760.19;;;26.05;46.70
21547;BME280;41275;51.912;4.388;2023-07-28T21:06:10;100749.56;;;26.00;46.58
21547;BME280;41275;51.912;4.388;2023-07-28T21:11:33;100741.63;;;25.95;46.19
21547;BME280;41275;51.912;4.388;2023-07-28T21:16:54;100741.03;;;25.89;46.11
21547;BME280;41275;51.912;4.388;2023-07-28T21:22:15;100744.59;;;25.81;46.32
21547;BME280;41275;51.912;4.388;2023-07-28T21:27:37;100732.34;;;25.75;46.45
21547;BME280;41275;51.912;4.388;2023-07-28T21:33:03;100732.09;;;25.68;46.48
21547;BME280;41275;51.912;4.388;2023-07-28T21:38:25;100732.28;;;25.63;46.63
21547;BME280;41275;51.912;4.388;2023-07-28T21:43:46;100725.81;;;25.55;46.79
21547;BME280;41275;51.912;4.388;2023-07-28T21:49:07;100723.13;;;25.46;47.11
21547;BME280;41275;51.912;4.388;2023-07-28T21:54:28;100735.59;;;25.48;47.52
21547;BME280;41275;51.912;4.388;2023-07-28T21:59:50;100727.31;;;25.44;47.57
21547;BME280;41275;51.912;4.388;2023-07-28T22:05:11;100733.72;;;25.39;47.93
21547;BME280;41275;51.912;4.388;2023-07-28T22:10:33;100743.44;;;25.40;48.04
21547;BME280;41275;51.912;4.388;2023-07-28T22:15:54;100737.66;;;25.42;48.52
21547;BME280;41275;51.912;4.388;2023-07-28T22:21:15;100746.78;;;25.37;48.93
21547;BME280;41275;51.912;4.388;2023-07-28T22:26:36;100739.16;;;25.31;49.42
21547;BME280;41275;51.912;4.388;2023-07-28T22:31:58;100732.72;;;25.23;49.80
21547;BME280;41275;51.912;4.388;2023-07-28T22:37:19;100735.28;;;25.19;50.26
21547;BME280;41275;51.912;4.388;2023-07-28T22:42:40;100742.78;;;25.14;50.52
21547;BME280;41275;51.912;4.388;2023-07-28T22:48:01;100750.91;;;25.14;51.00
21547;BME280;41275;51.912;4.388;2023-07-28T22:53:23;100751.00;;;25.26;51.13
21547;BME280;41275;51.912;4.388;2023-07-28T22:58:44;100755.56;;;25.34;51.28
21547;BME280;41275;51.912;4.388;2023-07-28T23:04:05;100754.63;;;25.30;51.95
21547;BME280;41275;51.912;4.388;2023-07-28T23:09:26;100751.06;;;25.38;51.59
21547;BME280;41275;51.912;4.388;2023-07-28T23:14:48;100752.13;;;25.55;51.66
21547;BME280;41275;51.912;4.388;2023-07-28T23:20:10;100746.00;;;25.58;51.46
21547;BME280;41275;51.912;4.388;2023-07-28T23:25:31;100746.28;;;25.44;51.38
21547;BME280;41275;51.912;4.388;2023-07-28T23:31:09;100736.50;;;25.22;51.92
21547;BME280;41275;51.912;4.388;2023-07-28T23:36:31;100729.69;;;25.07;51.93
21547;BME280;41275;51.912;4.388;2023-07-28T23:41:55;100748.41;;;25.00;51.50
21547;BME280;41275;51.912;4.388;2023-07-28T23:47:16;100734.22;;;24.94;51.26
21547;BME280;41275;51.912;4.388;2023-07-28T23:52:37;100734.41;;;24.89;51.19
21547;BME280;41275;51.912;4.388;2023-07-28T23:57:59;100721.88;;;24.85;51.19
